createdAt,value
2022-12-15T00:13:53.789Z,49.35
2022-12-15T00:29:13.986Z,45.00
2022-12-15T00:44:20.376Z,45.70
2022-12-15T00:59:40.897Z,47.20
2022-12-15T01:15:00.976Z,54.38
2022-12-15T01:30:02.350Z,52.78
2022-12-15T01:45:03.782Z,59.72
2022-12-15T02:00:05.268Z,50.15
2022-12-15T02:15:07.403Z,58.10
2022-12-15T02:30:08.771Z,45.47
2022-12-15T02:45:10.214Z,39.22
2022-12-15T03:00:11.722Z,50.50
2022-12-15T03:15:13.184Z,48.90
2022-12-15T03:30:14.548Z,53.80
2022-12-15T03:45:16.064Z,43.15
2022-12-15T04:00:18.947Z,41.90
2022-12-15T04:15:20.744Z,44.70
2022-12-15T04:30:41.520Z,47.05
2022-12-15T04:46:02.586Z,41.42
2022-12-15T05:01:23.523Z,40.30
2022-12-15T05:16:44.575Z,39.88
2022-12-15T05:31:52.725Z,42.03
2022-12-15T05:46:54.363Z,37.50
2022-12-15T06:01:56.600Z,44.70
2022-12-15T06:16:59.198Z,48.25
2022-12-15T06:32:00.757Z,44.83
2022-12-15T06:47:02.219Z,44.65
2022-12-15T07:02:03.794Z,46.90
2022-12-15T07:17:07.608Z,42.88
2022-12-15T07:32:09.104Z,42.00
2022-12-15T07:47:12.266Z,48.20
2022-12-15T08:02:13.871Z,37.53
2022-12-15T08:17:15.569Z,41.03
2022-12-15T08:32:16.991Z,42.70
2022-12-15T08:47:18.393Z,43.55
2022-12-15T09:02:19.888Z,40.58
2022-12-15T09:17:21.376Z,41.65
2022-12-15T09:32:22.811Z,39.97
2022-12-15T09:47:24.180Z,38.72
2022-12-15T10:02:25.879Z,42.50
2022-12-15T10:17:27.620Z,48.45
2022-12-15T10:32:29.065Z,39.17
2022-12-15T10:47:31.909Z,44.53
2022-12-15T11:02:34.045Z,44.25
2022-12-15T11:17:35.937Z,46.05
2022-12-15T11:32:37.316Z,46.55
2022-12-15T11:47:40.808Z,40.20
2022-12-15T12:02:42.379Z,43.13
2022-12-15T12:17:43.835Z,45.63
2022-12-15T12:32:47.341Z,42.17
2022-12-15T12:47:52.094Z,36.65
2022-12-15T13:02:53.567Z,37.90
2022-12-15T13:17:54.999Z,35.80
2022-12-15T13:32:56.361Z,32.72
2022-12-15T13:47:57.789Z,33.58
2022-12-15T14:02:59.204Z,24.52
2022-12-15T14:18:00.602Z,31.50
2022-12-15T14:33:02.028Z,28.75
2022-12-15T14:48:39.439Z,25.50
2022-12-15T15:03:25.417Z,33.20
2022-12-15T15:18:27.228Z,32.58
2022-12-15T15:33:28.606Z,30.77
2022-12-15T15:48:30.329Z,32.47
2022-12-15T16:03:32.117Z,28.25
2022-12-15T16:18:34.126Z,33.38
2022-12-15T16:33:36.155Z,39.33
2022-12-15T16:48:38.084Z,34.08
2022-12-15T17:03:40.092Z,34.67
2022-12-15T17:18:42.911Z,32.55
2022-12-15T17:33:45.880Z,34.33
2022-12-15T17:48:47.397Z,32.08
2022-12-15T18:03:49.274Z,32.83
2022-12-15T18:18:51.131Z,31.50
2022-12-15T18:33:52.561Z,35.22
2022-12-15T18:48:55.992Z,32.20
2022-12-15T19:03:58.718Z,33.60
2022-12-15T19:19:19.000Z,34.00
2022-12-15T19:34:20.777Z,36.80
2022-12-15T19:49:22.378Z,37.28
2022-12-15T20:04:24.570Z,37.80
2022-12-15T20:19:26.401Z,34.33
2022-12-15T20:34:27.978Z,33.00
2022-12-15T20:49:29.662Z,31.83
2022-12-15T21:04:33.233Z,31.55
2022-12-15T21:19:34.659Z,33.22
2022-12-15T21:34:36.063Z,32.80
2022-12-15T21:49:37.452Z,28.30
2022-12-15T22:04:38.822Z,30.63
2022-12-15T22:19:41.293Z,31.77
2022-12-15T22:34:42.671Z,31.83
2022-12-15T22:49:44.090Z,36.38
2022-12-15T23:04:45.475Z,36.03
2022-12-15T23:19:46.836Z,37.78
2022-12-15T23:34:48.233Z,33.80
2022-12-15T23:49:49.839Z,33.05
